createdAt,value
2018-04-08T00:00:49.540Z,47.07
2018-04-08T00:03:17.630Z,45.77
2018-04-08T00:05:46.078Z,48.03
2018-04-08T00:08:14.589Z,52.13
2018-04-08T00:10:42.726Z,43.40
2018-04-08T00:13:10.795Z,48.73
2018-04-08T00:15:39.018Z,50.77
2018-04-08T00:18:07.080Z,51.70
2018-04-08T00:20:35.146Z,49.67
2018-04-08T00:23:03.425Z,44.53
2018-04-08T00:25:33.129Z,49.30
2018-04-08T00:28:01.381Z,45.10
2018-04-08T00:30:29.584Z,46.27
2018-04-08T00:32:57.650Z,40.67
2018-04-08T00:35:25.784Z,45.33
2018-04-08T00:37:54.200Z,43.43
2018-04-08T00:40:22.275Z,45.20
2018-04-08T00:42:50.316Z,42.77
2018-04-08T00:45:19.540Z,51.93
2018-04-08T00:47:47.729Z,43.30
2018-04-08T00:50:15.911Z,49.03
2018-04-08T00:52:44.678Z,45.10
2018-04-08T00:55:12.874Z,46.73
2018-04-08T00:57:41.634Z,41.67
2018-04-08T01:00:09.612Z,44.93
2018-04-08T01:02:37.678Z,43.00
2018-04-08T01:05:06.169Z,41.23
2018-04-08T01:07:34.436Z,41.23
2018-04-08T01:10:02.710Z,41.13
2018-04-08T01:12:30.979Z,44.60
2018-04-08T01:14:59.060Z,46.23
2018-04-08T01:17:27.126Z,44.90
2018-04-08T01:19:55.299Z,43.07
2018-04-08T01:22:23.475Z,42.00
2018-04-08T01:24:51.954Z,43.60
2018-04-08T01:27:20.578Z,51.77
2018-04-08T01:29:48.716Z,47.67
2018-04-08T01:32:16.780Z,44.50
2018-04-08T01:34:45.160Z,50.40
2018-04-08T01:37:13.715Z,45.03
2018-04-08T01:39:41.900Z,49.53
2018-04-08T01:42:10.395Z,45.47
2018-04-08T01:44:38.647Z,48.00
2018-04-08T01:47:06.845Z,44.30
2018-04-08T01:49:34.914Z,43.50
2018-04-08T01:52:03.395Z,49.17
2018-04-08T01:54:31.665Z,50.93
2018-04-08T01:56:59.845Z,46.37
2018-04-08T01:59:28.020Z,47.77
2018-04-08T02:01:56.499Z,45.67
2018-04-08T02:04:24.809Z,41.97
2018-04-08T02:06:53.766Z,44.03
2018-04-08T02:09:22.245Z,49.60
2018-04-08T02:11:51.450Z,42.33
2018-04-08T02:14:19.900Z,41.20
2018-04-08T02:16:47.995Z,44.37
2018-04-08T02:19:16.253Z,48.27
2018-04-08T02:21:44.520Z,45.77
2018-04-08T02:24:12.824Z,47.70
2018-04-08T02:26:40.900Z,47.07
2018-04-08T02:29:09.041Z,44.67
2018-04-08T02:31:37.346Z,43.87
2018-04-08T02:34:05.660Z,47.40
2018-04-08T02:36:33.812Z,48.37
2018-04-08T02:39:03.052Z,47.23
2018-04-08T02:41:31.166Z,46.67
2018-04-08T02:43:59.401Z,45.63
2018-04-08T02:46:27.676Z,50.00
2018-04-08T02:48:55.997Z,50.07
2018-04-08T02:51:24.125Z,51.87
2018-04-08T02:53:52.647Z,47.57
2018-04-08T02:56:21.736Z,48.37
2018-04-08T02:58:50.115Z,48.60
2018-04-08T03:01:18.385Z,49.70
2018-04-08T03:03:46.565Z,48.00
2018-04-08T03:06:14.946Z,45.93
2018-04-08T03:08:43.430Z,47.00
2018-04-08T03:11:11.688Z,45.07
2018-04-08T03:13:39.961Z,42.67
2018-04-08T03:16:08.521Z,40.30
2018-04-08T03:18:36.746Z,45.57
2018-04-08T03:21:04.905Z,44.07
2018-04-08T03:23:33.245Z,40.83
2018-04-08T03:26:01.324Z,38.57
2018-04-08T03:28:29.400Z,38.97
2018-04-08T03:30:57.766Z,47.37
2018-04-08T03:33:25.880Z,43.00
2018-04-08T03:35:53.845Z,38.83
2018-04-08T03:38:21.916Z,37.90
2018-04-08T03:40:50.060Z,37.93
2018-04-08T03:43:18.259Z,41.67
2018-04-08T03:45:46.542Z,36.67
2018-04-08T03:48:14.895Z,39.87
2018-04-08T03:50:43.085Z,39.20
2018-04-08T03:53:11.471Z,37.37
2018-04-08T03:55:39.509Z,37.63
2018-04-08T03:58:07.924Z,46.33
2018-04-08T04:00:35.950Z,39.40
2018-04-08T04:03:04.055Z,37.93
2018-04-08T04:05:32.030Z,40.50
2018-04-08T04:08:00.096Z,40.83
2018-04-08T04:10:28.275Z,36.80
2018-04-08T04:12:56.601Z,40.90
2018-04-08T04:15:24.589Z,34.17
2018-04-08T04:17:52.585Z,35.97
2018-04-08T04:20:32.637Z,39.63
2018-04-08T04:23:12.380Z,36.70
2018-04-08T04:25:52.946Z,62.90
2018-04-08T04:28:23.160Z,49.00
2018-04-08T04:30:51.135Z,42.10
2018-04-08T04:33:19.424Z,41.93
2018-04-08T04:35:47.685Z,33.40
2018-04-08T04:38:16.136Z,34.37
2018-04-08T04:40:44.644Z,44.97
2018-04-08T04:43:12.719Z,39.20
2018-04-08T04:45:40.695Z,42.40
2018-04-08T04:48:09.165Z,48.37
2018-04-08T04:50:37.140Z,51.07
2018-04-08T04:53:05.280Z,52.80
2018-04-08T04:55:33.602Z,48.13
2018-04-08T04:58:01.660Z,44.20
2018-04-08T05:00:29.685Z,41.97
2018-04-08T05:02:57.800Z,50.80
2018-04-08T05:05:25.841Z,41.60
2018-04-08T05:07:54.251Z,42.53
2018-04-08T05:10:22.408Z,38.77
2018-04-08T05:12:50.594Z,33.00
2018-04-08T05:15:19.044Z,31.23
2018-04-08T05:17:47.146Z,29.30
2018-04-08T05:20:15.315Z,30.43
2018-04-08T05:22:43.658Z,27.10
2018-04-08T05:25:12.385Z,27.07
2018-04-08T05:27:40.688Z,26.43
2018-04-08T05:30:09.297Z,26.07
2018-04-08T05:32:37.819Z,25.93
2018-04-08T05:35:06.210Z,26.27
2018-04-08T05:37:34.849Z,25.60
2018-04-08T05:40:03.365Z,23.60
2018-04-08T05:42:31.705Z,24.73
2018-04-08T05:44:59.710Z,24.13
2018-04-08T05:47:28.074Z,23.63
2018-04-08T05:49:56.385Z,22.10
2018-04-08T05:52:24.644Z,24.33
2018-04-08T05:54:52.886Z,26.30
2018-04-08T05:57:20.990Z,23.60
2018-04-08T05:59:49.160Z,24.37
2018-04-08T06:02:17.241Z,22.80
2018-04-08T06:04:45.399Z,23.10
2018-04-08T06:07:13.376Z,22.73
2018-04-08T06:09:41.344Z,20.73
2018-04-08T06:12:09.319Z,22.87
2018-04-08T06:14:37.696Z,22.40
2018-04-08T06:17:05.765Z,22.23
2018-04-08T06:19:33.935Z,20.47
2018-04-08T06:22:02.116Z,20.43
2018-04-08T06:24:30.485Z,20.63
2018-04-08T06:26:58.658Z,20.77
2018-04-08T06:29:26.631Z,19.70
2018-04-08T06:31:54.804Z,20.90
2018-04-08T06:34:22.974Z,17.70
2018-04-08T06:36:50.939Z,18.83
2018-04-08T06:39:18.989Z,19.63
2018-04-08T06:41:47.204Z,19.83
2018-04-08T06:44:15.465Z,19.60
2018-04-08T06:46:43.335Z,20.37
2018-04-08T06:49:11.492Z,17.87
2018-04-08T06:51:39.676Z,19.03
2018-04-08T06:54:07.710Z,19.30
2018-04-08T06:56:35.760Z,20.33
2018-04-08T06:59:04.210Z,19.53
2018-04-08T07:01:32.372Z,20.60
2018-04-08T07:04:00.340Z,20.53
2018-04-08T07:06:28.509Z,21.80
2018-04-08T07:08:56.784Z,29.27
2018-04-08T07:11:24.655Z,20.20
2018-04-08T07:13:52.717Z,20.43
2018-04-08T07:16:20.691Z,19.43
2018-04-08T07:18:48.561Z,20.70
2018-04-08T07:21:16.626Z,21.50
2018-04-08T07:23:44.587Z,22.33
2018-04-08T07:26:12.669Z,22.07
2018-04-08T07:28:41.184Z,20.27
2018-04-08T07:31:10.036Z,19.93
2018-04-08T07:33:38.417Z,20.10
2018-04-08T07:36:06.703Z,21.97
2018-04-08T07:38:34.659Z,20.83
2018-04-08T07:41:02.892Z,21.87
2018-04-08T07:43:30.907Z,20.23
2018-04-08T07:45:58.974Z,21.93
2018-04-08T07:48:27.241Z,21.43
2018-04-08T07:50:55.219Z,21.70
2018-04-08T07:53:23.290Z,19.80
2018-04-08T07:55:51.130Z,21.77
2018-04-08T07:58:19.434Z,20.17
2018-04-08T08:00:47.301Z,19.93
2018-04-08T08:03:15.456Z,18.07
2018-04-08T08:05:43.446Z,18.87
2018-04-08T08:08:11.408Z,18.53
2018-04-08T08:10:39.288Z,17.77
2018-04-08T08:13:07.672Z,17.53
2018-04-08T08:15:36.851Z,20.77
2018-04-08T08:18:04.931Z,18.73
2018-04-08T08:20:33.371Z,17.60
2018-04-08T08:23:01.511Z,17.27
2018-04-08T08:25:32.931Z,18.60
2018-04-08T08:28:01.512Z,15.87
2018-04-08T08:30:29.792Z,18.83
2018-04-08T08:32:57.852Z,17.40
2018-04-08T08:35:26.151Z,19.93
2018-04-08T08:37:55.092Z,17.07
2018-04-08T08:40:24.035Z,16.30
2018-04-08T08:42:52.811Z,17.47
2018-04-08T08:45:21.491Z,18.00
2018-04-08T08:47:49.852Z,17.13
2018-04-08T08:50:18.331Z,22.53
2018-04-08T08:52:46.411Z,17.30
2018-04-08T08:55:14.591Z,17.60
2018-04-08T08:57:43.852Z,16.47
2018-04-08T09:00:19.218Z,16.87
2018-04-08T09:02:47.411Z,15.67
2018-04-08T09:05:15.821Z,16.63
2018-04-08T09:07:44.791Z,16.33
2018-04-08T09:10:14.091Z,16.23
2018-04-08T09:12:43.692Z,15.97
2018-04-08T09:15:12.032Z,16.67
2018-04-08T09:17:40.351Z,16.20
2018-04-08T09:20:11.293Z,16.47
2018-04-08T09:22:54.311Z,15.83
2018-04-08T09:25:24.212Z,16.20
2018-04-08T09:27:52.711Z,16.60
2018-04-08T09:30:21.695Z,17.60
2018-04-08T09:32:49.871Z,17.80
2018-04-08T09:35:17.932Z,17.10
2018-04-08T09:37:46.111Z,14.80
2018-04-08T09:40:14.412Z,15.50
2018-04-08T09:42:43.552Z,14.73
2018-04-08T09:45:11.871Z,14.90
2018-04-08T09:47:41.142Z,16.20
2018-04-08T09:50:09.330Z,14.00
2018-04-08T09:52:37.514Z,14.70
2018-04-08T09:55:06.629Z,14.63
2018-04-08T09:57:38.571Z,16.17
2018-04-08T10:00:07.752Z,15.80
2018-04-08T10:02:36.331Z,14.70
2018-04-08T10:05:04.652Z,15.57
2018-04-08T10:07:34.012Z,14.73
2018-04-08T10:10:02.392Z,13.77
2018-04-08T10:12:30.772Z,14.83
2018-04-08T10:14:59.272Z,12.33
2018-04-08T10:17:28.132Z,15.20
2018-04-08T10:19:57.476Z,12.93
2018-04-08T10:22:25.832Z,12.67
2018-04-08T10:24:54.131Z,15.40
2018-04-08T10:27:23.092Z,14.57
2018-04-08T10:29:51.452Z,13.77
2018-04-08T10:32:20.372Z,13.07
2018-04-08T10:34:49.360Z,14.87
2018-04-08T10:37:17.731Z,13.70
2018-04-08T10:42:55.272Z,14.77
2018-04-08T10:45:34.172Z,16.73
2018-04-08T10:57:14.871Z,15.13
2018-04-08T10:59:43.163Z,16.60
2018-04-08T11:02:12.375Z,15.00
2018-04-08T11:04:41.176Z,15.60
2018-04-08T11:07:10.119Z,16.17
2018-04-08T11:09:40.056Z,15.07
2018-04-08T11:12:11.511Z,15.50
2018-04-08T11:14:40.597Z,14.40
2018-04-08T11:17:09.562Z,15.30
2018-04-08T11:19:40.359Z,14.37
2018-04-08T11:22:09.297Z,13.83
2018-04-08T11:24:37.951Z,13.90
2018-04-08T11:27:14.991Z,14.30
2018-04-08T11:29:47.376Z,13.63
2018-04-08T11:32:16.767Z,14.07
2018-04-08T11:34:47.920Z,14.20
2018-04-08T11:37:23.951Z,14.07
2018-04-08T11:39:54.767Z,13.40
2018-04-08T11:42:30.863Z,14.00
2018-04-08T11:45:02.176Z,14.73
2018-04-08T11:47:31.151Z,13.70
2018-04-08T11:49:59.713Z,13.67
2018-04-08T11:52:28.901Z,13.80
2018-04-08T11:54:58.357Z,13.17
2018-04-08T11:57:27.167Z,11.70
2018-04-08T11:59:55.791Z,13.50
2018-04-08T12:02:24.248Z,13.33
2018-04-08T12:04:53.719Z,12.57
2018-04-08T12:07:22.071Z,13.13
2018-04-08T12:09:50.807Z,11.43
2018-04-08T12:12:19.920Z,12.17
2018-04-08T12:14:48.895Z,12.67
2018-04-08T12:17:17.392Z,13.80
2018-04-08T12:19:46.479Z,11.80
2018-04-08T12:22:15.599Z,13.40
2018-04-08T12:24:43.954Z,11.90
2018-04-08T12:27:13.351Z,11.87
2018-04-08T12:29:42.703Z,11.10
2018-04-08T12:32:11.031Z,12.17
2018-04-08T12:34:40.679Z,13.00
2018-04-08T12:37:09.409Z,13.93
2018-04-08T12:39:37.599Z,12.47
2018-04-08T12:42:06.495Z,14.93
2018-04-08T12:44:35.807Z,13.23
2018-04-08T12:47:04.767Z,13.17
2018-04-08T12:49:32.950Z,15.60
2018-04-08T12:52:02.759Z,14.17
2018-04-08T12:54:31.958Z,12.23
2018-04-08T12:57:00.135Z,15.33
2018-04-08T12:59:29.512Z,13.53
2018-04-08T13:01:58.050Z,14.67
2018-04-08T13:04:27.831Z,13.90
2018-04-08T13:06:58.246Z,12.23
2018-04-08T13:09:26.615Z,13.87
2018-04-08T13:11:54.935Z,13.93
2018-04-08T13:14:23.999Z,14.70
2018-04-08T13:16:53.271Z,13.80
2018-04-08T13:19:22.567Z,14.30
2018-04-08T13:21:53.447Z,13.87
2018-04-08T13:24:22.631Z,15.30
2018-04-08T13:26:51.110Z,15.13
2018-04-08T13:29:19.854Z,14.60
2018-04-08T13:31:50.659Z,13.97
2018-04-08T13:34:19.535Z,14.67
2018-04-08T13:36:49.951Z,14.80
2018-04-08T13:39:22.015Z,15.37
2018-04-08T13:41:52.959Z,15.20
2018-04-08T13:47:19.891Z,14.47
2018-04-08T13:49:53.871Z,15.30
2018-04-08T13:52:22.886Z,16.20
2018-04-08T13:54:51.780Z,15.50
2018-04-08T13:57:21.444Z,15.30
2018-04-08T13:59:51.684Z,15.13
2018-04-08T14:02:22.263Z,15.00
2018-04-08T14:04:50.724Z,15.10
2018-04-08T14:07:20.068Z,16.83
2018-04-08T14:09:50.221Z,15.30
2018-04-08T14:12:18.820Z,14.43
2018-04-08T14:14:48.132Z,12.83
2018-04-08T14:17:17.295Z,13.53
2018-04-08T14:19:45.492Z,14.17
2018-04-08T14:22:16.052Z,15.27
2018-04-08T14:24:44.549Z,16.57
2018-04-08T14:27:12.990Z,14.63
2018-04-08T14:29:41.860Z,13.50
2018-04-08T14:32:10.231Z,13.03
2018-04-08T14:34:39.252Z,14.93
2018-04-08T14:37:08.885Z,13.30
2018-04-08T14:39:39.684Z,13.13
2018-04-08T14:55:14.372Z,13.53
2018-04-08T14:57:43.172Z,12.80
2018-04-08T15:00:11.572Z,13.63
2018-04-08T15:02:41.268Z,13.90
2018-04-08T15:05:11.382Z,13.67
2018-04-08T15:07:39.781Z,13.93
2018-04-08T15:10:08.771Z,17.30
2018-04-08T15:12:38.165Z,13.97
2018-04-08T15:15:07.350Z,14.07
2018-04-08T15:17:36.051Z,13.60
2018-04-08T15:20:05.252Z,12.47
2018-04-08T15:22:34.740Z,12.73
2018-04-08T15:25:03.508Z,15.17
2018-04-08T15:27:33.700Z,12.93
2018-04-08T15:30:01.926Z,12.07
2018-04-08T15:32:31.124Z,12.77
2018-04-08T15:34:59.412Z,13.23
2018-04-08T15:37:28.473Z,13.03
2018-04-08T15:39:56.868Z,12.77
2018-04-08T15:42:25.132Z,13.07
2018-04-08T15:44:53.830Z,13.10
2018-04-08T15:47:21.988Z,14.40
2018-04-08T15:49:50.292Z,13.20
2018-04-08T15:52:19.699Z,14.13
2018-04-08T15:54:49.092Z,14.13
2018-04-08T15:57:18.180Z,13.40
2018-04-08T15:59:47.189Z,14.60
2018-04-08T16:02:16.389Z,13.23
2018-04-08T16:04:45.572Z,14.30
2018-04-08T16:07:15.060Z,14.47
2018-04-08T16:09:44.868Z,12.57
2018-04-08T16:12:12.965Z,15.27
2018-04-08T16:14:42.569Z,13.47
2018-04-08T16:17:11.492Z,14.30
2018-04-08T16:19:41.172Z,13.93
2018-04-08T16:22:11.140Z,14.23
2018-04-08T16:24:40.692Z,13.70
2018-04-08T16:27:09.380Z,13.40
2018-04-08T16:29:38.964Z,14.03
2018-04-08T16:32:07.492Z,14.20
2018-04-08T16:34:37.412Z,13.90
2018-04-08T16:37:07.981Z,14.00
2018-04-08T16:39:37.621Z,15.27
2018-04-08T16:42:06.084Z,16.20
2018-04-08T16:44:37.300Z,16.10
2018-04-08T16:47:06.814Z,16.47
2018-04-08T16:49:36.900Z,15.97
2018-04-08T16:52:05.220Z,15.80
2018-04-08T16:54:35.141Z,16.37
2018-04-08T16:57:04.331Z,16.13
2018-04-08T16:59:33.972Z,15.43
2018-04-08T17:02:03.332Z,17.00
2018-04-08T17:04:32.900Z,16.30
2018-04-08T17:07:01.332Z,16.27
2018-04-08T17:09:29.712Z,15.00
2018-04-08T17:11:57.916Z,14.87
2018-04-08T17:14:28.133Z,15.40
2018-04-08T17:16:56.567Z,17.33
2018-04-08T17:19:24.788Z,15.30
2018-04-08T17:21:54.085Z,17.23
2018-04-08T17:24:23.068Z,15.53
2018-04-08T17:26:54.932Z,18.80
2018-04-08T17:29:23.908Z,15.77
2018-04-08T17:31:53.125Z,17.03
2018-04-08T17:34:22.500Z,16.47
2018-04-08T17:36:51.093Z,17.37
2018-04-08T17:39:19.989Z,16.70
2018-04-08T17:41:49.188Z,16.90
2018-04-08T17:44:17.668Z,17.23
2018-04-08T17:46:46.420Z,17.33
2018-04-08T17:49:15.668Z,17.87
2018-04-08T17:51:46.662Z,17.03
2018-04-08T17:54:20.900Z,18.50
2018-04-08T17:56:56.348Z,17.67
2018-04-08T17:59:26.071Z,17.70
2018-04-08T18:01:58.020Z,17.97
2018-04-08T18:04:32.294Z,18.50
2018-04-08T18:07:02.324Z,17.87
2018-04-08T18:09:31.524Z,17.33
2018-04-08T18:12:02.185Z,17.27
2018-04-08T18:14:36.804Z,17.33
2018-04-08T18:17:06.325Z,18.03
2018-04-08T18:19:40.725Z,19.57
2018-04-08T18:22:18.629Z,16.57
2018-04-08T18:24:55.300Z,17.93
2018-04-08T18:27:23.892Z,18.40
2018-04-08T18:29:52.483Z,17.47
2018-04-08T18:32:22.664Z,17.30
2018-04-08T18:34:52.180Z,17.83
2018-04-08T18:37:24.421Z,17.80
2018-04-08T18:40:01.781Z,17.93
2018-04-08T18:42:31.780Z,18.70
2018-04-08T18:45:02.036Z,18.27
2018-04-08T18:47:34.903Z,18.23
2018-04-08T18:50:05.940Z,18.47
2018-04-08T18:52:37.375Z,16.00
2018-04-08T18:55:06.676Z,18.90
2018-04-08T18:57:36.100Z,18.57
2018-04-08T19:00:05.062Z,19.20
2018-04-08T19:02:33.771Z,18.63
2018-04-08T19:05:03.396Z,18.63
2018-04-08T19:07:33.573Z,19.27
2018-04-08T19:26:22.676Z,25.53
2018-04-08T19:28:51.303Z,23.07
2018-04-08T19:31:22.660Z,22.03
2018-04-08T19:33:55.205Z,21.90
2018-04-08T19:36:28.245Z,21.10
2018-04-08T19:38:59.965Z,22.83
2018-04-08T19:41:30.783Z,22.33
2018-04-08T19:44:09.076Z,22.50
2018-04-08T19:46:39.620Z,20.47
2018-04-08T19:49:14.980Z,20.23
2018-04-08T19:51:45.941Z,21.40
2018-04-08T19:54:18.325Z,21.17
2018-04-08T19:56:49.684Z,20.97
2018-04-08T20:01:57.893Z,21.77
2018-04-08T20:04:27.193Z,21.97
2018-04-08T20:06:56.596Z,21.33
2018-04-08T20:09:26.463Z,21.50
2018-04-08T20:11:58.021Z,23.30
2018-04-08T20:14:27.396Z,22.73
2018-04-08T20:16:58.404Z,22.37
2018-04-08T20:19:34.788Z,23.10
2018-04-08T20:22:05.413Z,23.60
2018-04-08T20:24:36.338Z,22.13
2018-04-08T20:27:05.824Z,22.83
2018-04-08T20:29:36.421Z,21.13
2018-04-08T20:32:05.476Z,20.83
2018-04-08T20:34:34.964Z,22.47
2018-04-08T20:37:03.458Z,25.40
2018-04-08T20:39:31.759Z,24.53
2018-04-08T20:42:00.595Z,24.40
2018-04-08T20:44:28.786Z,25.23
2018-04-08T20:46:56.964Z,26.80
2018-04-08T20:49:25.239Z,28.67
2018-04-08T20:51:53.206Z,39.63
2018-04-08T20:54:21.585Z,28.63
2018-04-08T20:56:49.775Z,32.00
2018-04-08T20:59:19.033Z,28.33
2018-04-08T21:01:47.333Z,29.43
2018-04-08T21:04:15.404Z,29.70
2018-04-08T21:06:43.811Z,26.53
2018-04-08T21:09:12.776Z,28.13
2018-04-08T21:11:41.670Z,25.97
2018-04-08T21:14:09.936Z,27.53
2018-04-08T21:16:38.419Z,29.07
2018-04-08T21:19:06.470Z,31.87
2018-04-08T21:21:34.867Z,31.80
2018-04-08T21:24:03.329Z,35.33
2018-04-08T21:26:31.829Z,23.37
2018-04-08T21:29:00.208Z,22.60
2018-04-08T21:31:28.790Z,23.10
2018-04-08T21:33:57.338Z,21.47
2018-04-08T21:36:25.587Z,20.30
2018-04-08T21:38:53.732Z,21.03
2018-04-08T21:41:21.767Z,21.20
2018-04-08T21:43:49.966Z,20.27
2018-04-08T21:46:18.035Z,20.97
2018-04-08T21:48:47.140Z,21.40
2018-04-08T21:51:15.099Z,21.90
2018-04-08T21:53:43.178Z,23.57
2018-04-08T21:56:11.248Z,23.03
2018-04-08T21:58:39.104Z,24.67
2018-04-08T22:01:07.387Z,23.07
2018-04-08T22:03:35.554Z,23.97
2018-04-08T22:06:04.040Z,21.90
2018-04-08T22:08:32.223Z,23.40
2018-04-08T22:11:00.491Z,23.17
2018-04-08T22:13:28.871Z,22.53
2018-04-08T22:15:57.254Z,23.67
2018-04-08T22:18:25.454Z,22.80
2018-04-08T22:20:54.510Z,23.20
2018-04-08T22:23:22.567Z,23.17
2018-04-08T22:25:51.578Z,22.67
2018-04-08T22:28:20.292Z,23.40
2018-04-08T22:30:49.046Z,23.90
2018-04-08T22:33:17.238Z,23.43
2018-04-08T22:35:46.325Z,23.03
2018-04-08T22:38:14.996Z,20.93
2018-04-08T22:40:43.481Z,22.83
2018-04-08T22:43:11.665Z,23.83
2018-04-08T22:45:39.805Z,23.90
2018-04-08T22:48:07.883Z,22.93
2018-04-08T22:50:36.278Z,23.00
2018-04-08T22:53:04.349Z,21.03
2018-04-08T22:55:32.318Z,21.77
2018-04-08T22:58:00.695Z,22.53
2018-04-08T23:00:29.219Z,23.57
2018-04-08T23:02:57.460Z,21.30
2018-04-08T23:05:25.725Z,23.10
2018-04-08T23:07:54.293Z,22.80
2018-04-08T23:10:22.775Z,21.07
2018-04-08T23:12:50.945Z,21.90
2018-04-08T23:15:19.142Z,22.63
2018-04-08T23:17:47.516Z,21.27
2018-04-08T23:20:15.816Z,21.90
2018-04-08T23:22:44.176Z,25.83
2018-04-08T23:25:12.427Z,21.07
2018-04-08T23:27:40.720Z,23.07
2018-04-08T23:30:08.996Z,22.53
2018-04-08T23:32:37.303Z,23.47
2018-04-08T23:35:06.693Z,22.77
2018-04-08T23:37:35.670Z,27.33
2018-04-08T23:40:03.945Z,24.33
2018-04-08T23:42:32.115Z,24.30
2018-04-08T23:45:00.515Z,23.93
2018-04-08T23:47:29.398Z,23.90
2018-04-08T23:49:57.636Z,22.97
2018-04-08T23:52:25.730Z,22.60
2018-04-08T23:54:54.191Z,22.10
2018-04-08T23:57:22.488Z,22.37
2018-04-08T23:59:51.280Z,22.47
